createdAt,value
2022-12-22T00:00:00.869Z,2.04
2022-12-22T00:02:48.383Z,1.99
2022-12-22T00:05:39.365Z,2.01
2022-12-22T00:08:26.258Z,1.96
2022-12-22T00:11:13.316Z,2.04
2022-12-22T00:14:01.372Z,1.99
2022-12-22T00:16:52.133Z,2.00
2022-12-22T00:19:38.311Z,1.99
2022-12-22T00:22:38.810Z,2.04
2022-12-22T00:25:25.425Z,2.04
2022-12-22T00:28:11.140Z,2.06
2022-12-22T00:30:57.299Z,2.06
2022-12-22T00:33:43.256Z,2.04
2022-12-22T00:36:31.009Z,2.06
2022-12-22T00:39:17.055Z,2.10
2022-12-22T00:42:03.806Z,2.05
2022-12-22T00:44:50.074Z,2.10
2022-12-22T00:47:47.213Z,2.10
2022-12-22T00:50:34.148Z,2.07
2022-12-22T00:53:21.157Z,2.12
2022-12-22T00:56:07.338Z,2.12
2022-12-22T00:58:53.875Z,2.12
2022-12-22T01:01:39.644Z,2.15
2022-12-22T01:04:29.342Z,2.15
2022-12-22T01:07:16.148Z,2.16
2022-12-22T01:10:05.910Z,2.13
2022-12-22T01:12:52.983Z,2.14
2022-12-22T01:15:39.627Z,2.13
2022-12-22T01:18:25.847Z,2.10
2022-12-22T01:21:12.204Z,2.16
2022-12-22T01:23:58.338Z,2.16
2022-12-22T01:26:44.654Z,2.11
2022-12-22T01:29:30.267Z,2.15
2022-12-22T01:32:16.548Z,2.14
2022-12-22T01:35:02.661Z,2.11
2022-12-22T01:37:48.945Z,2.07
2022-12-22T01:40:40.103Z,2.12
2022-12-22T01:43:40.400Z,2.12
2022-12-22T01:46:47.141Z,2.12
2022-12-22T01:49:53.840Z,2.13
2022-12-22T01:52:42.124Z,2.13
2022-12-22T01:55:31.021Z,2.16
2022-12-22T01:58:17.321Z,2.12
2022-12-22T02:01:03.545Z,2.18
2022-12-22T02:03:49.299Z,2.15
2022-12-22T02:06:59.770Z,2.19
2022-12-22T02:09:55.723Z,2.18
2022-12-22T02:12:52.167Z,2.17
2022-12-22T02:15:44.461Z,2.21
2022-12-22T02:18:35.372Z,2.19
2022-12-22T02:21:28.672Z,2.21
2022-12-22T02:24:14.536Z,2.21
2022-12-22T02:27:20.884Z,2.09
2022-12-22T02:30:10.014Z,2.26
2022-12-22T02:33:03.592Z,2.24
2022-12-22T02:36:22.182Z,2.22
2022-12-22T02:39:24.620Z,2.20
2022-12-22T02:42:37.985Z,2.30
2022-12-22T02:45:30.330Z,2.29
2022-12-22T02:48:21.298Z,2.27
2022-12-22T02:51:24.772Z,2.23
2022-12-22T02:54:11.593Z,2.19
2022-12-22T02:56:58.613Z,2.28
2022-12-22T02:59:44.624Z,2.27
2022-12-22T03:02:31.484Z,2.26
2022-12-22T03:05:18.094Z,2.28
2022-12-22T03:08:08.306Z,2.29
2022-12-22T03:10:55.260Z,2.33
2022-12-22T03:13:41.183Z,2.34
2022-12-22T03:16:27.320Z,2.29
2022-12-22T03:19:13.201Z,2.35
2022-12-22T03:21:59.592Z,2.34
2022-12-22T03:24:45.211Z,2.36
2022-12-22T03:27:12.749Z,2.39
2022-12-22T03:29:39.853Z,2.41
2022-12-22T03:32:07.305Z,2.38
2022-12-22T03:34:34.524Z,2.42
2022-12-22T03:37:01.783Z,2.40
2022-12-22T03:39:28.943Z,2.42
2022-12-22T03:42:14.991Z,2.43
2022-12-22T03:45:01.101Z,2.45
2022-12-22T03:47:28.721Z,2.44
2022-12-22T03:49:55.898Z,2.44
2022-12-22T03:52:23.316Z,2.44
2022-12-22T03:54:50.464Z,2.44
2022-12-22T03:57:17.857Z,2.47
2022-12-22T03:59:44.987Z,2.47
2022-12-22T04:02:12.580Z,2.46
2022-12-22T04:04:39.768Z,2.43
2022-12-22T04:07:07.175Z,2.41
2022-12-22T04:09:34.429Z,2.51
2022-12-22T04:12:20.570Z,2.56
2022-12-22T04:14:47.736Z,2.57
2022-12-22T04:17:15.064Z,2.58
2022-12-22T04:19:42.235Z,2.61
2022-12-22T04:22:09.696Z,2.57
2022-12-22T04:24:36.809Z,2.56
2022-12-22T04:27:04.127Z,2.52
2022-12-22T04:29:31.255Z,2.54
2022-12-22T04:31:58.721Z,2.54
2022-12-22T04:34:25.958Z,2.54
2022-12-22T04:36:53.348Z,2.59
2022-12-22T04:39:20.470Z,2.58
2022-12-22T04:41:48.067Z,2.62
2022-12-22T04:44:15.393Z,2.60
2022-12-22T04:46:43.114Z,2.62
2022-12-22T04:49:10.275Z,2.64
2022-12-22T04:51:37.633Z,2.62
2022-12-22T04:54:04.815Z,2.64
2022-12-22T04:56:32.193Z,2.69
2022-12-22T04:58:59.327Z,2.73
2022-12-22T05:01:26.918Z,2.70
2022-12-22T05:03:54.389Z,2.70
2022-12-22T05:06:21.710Z,2.75
2022-12-22T05:08:48.748Z,2.77
2022-12-22T05:11:16.115Z,2.78
2022-12-22T05:13:43.356Z,2.80
2022-12-22T05:16:18.648Z,2.75
2022-12-22T05:18:46.413Z,2.85
2022-12-22T05:21:19.180Z,2.85
2022-12-22T05:23:46.821Z,2.81
2022-12-22T05:26:15.057Z,2.83
2022-12-22T05:28:42.885Z,2.82
2022-12-22T05:31:14.577Z,2.82
2022-12-22T05:33:41.954Z,2.84
2022-12-22T05:36:09.368Z,2.84
2022-12-22T05:38:36.710Z,2.93
2022-12-22T05:41:05.045Z,2.95
2022-12-22T05:43:35.891Z,2.94
2022-12-22T05:46:09.403Z,2.90
2022-12-22T05:48:39.444Z,2.97
2022-12-22T05:51:09.792Z,2.99
2022-12-22T05:53:37.578Z,3.00
2022-12-22T05:56:05.917Z,3.01
2022-12-22T05:58:33.677Z,3.02
2022-12-22T06:01:01.585Z,3.14
2022-12-22T06:03:30.794Z,3.09
2022-12-22T06:05:59.573Z,3.14
2022-12-22T06:08:27.765Z,3.08
2022-12-22T06:10:56.595Z,3.03
2022-12-22T06:13:24.759Z,3.00
2022-12-22T06:15:52.395Z,3.01
2022-12-22T06:18:19.626Z,3.06
2022-12-22T06:20:47.541Z,3.07
2022-12-22T06:23:14.937Z,3.03
2022-12-22T06:25:42.432Z,3.04
2022-12-22T06:28:09.702Z,3.06
2022-12-22T06:30:37.009Z,3.03
2022-12-22T06:33:06.263Z,3.05
2022-12-22T06:35:38.112Z,3.08
2022-12-22T06:38:05.562Z,2.95
2022-12-22T06:40:33.499Z,3.06
2022-12-22T06:43:12.418Z,3.07
2022-12-22T06:45:42.438Z,3.07
2022-12-22T06:48:11.331Z,3.06
2022-12-22T06:50:38.907Z,3.08
2022-12-22T06:53:08.377Z,3.12
2022-12-22T06:55:37.139Z,3.16
2022-12-22T06:58:05.315Z,3.16
2022-12-22T07:00:33.596Z,3.18
2022-12-22T07:03:01.329Z,3.17
2022-12-22T07:05:32.017Z,3.13
2022-12-22T07:08:05.935Z,3.11
2022-12-22T07:10:54.192Z,3.13
2022-12-22T07:13:21.739Z,3.05
2022-12-22T07:15:55.437Z,3.16
2022-12-22T07:18:27.416Z,3.23
2022-12-22T07:20:55.325Z,3.23
2022-12-22T07:23:23.171Z,3.23
2022-12-22T07:25:50.878Z,3.20
2022-12-22T07:28:20.967Z,3.21
2022-12-22T07:30:50.309Z,3.26
2022-12-22T07:33:17.718Z,3.25
2022-12-22T07:35:45.449Z,3.31
2022-12-22T07:38:13.006Z,3.36
2022-12-22T07:40:42.476Z,3.34
2022-12-22T07:43:10.516Z,3.34
2022-12-22T07:45:38.465Z,3.36
2022-12-22T07:48:26.099Z,3.42
2022-12-22T07:50:54.638Z,3.40
2022-12-22T07:53:21.785Z,3.41
2022-12-22T07:55:49.176Z,3.42
2022-12-22T07:58:16.604Z,3.45
2022-12-22T08:00:44.217Z,3.50
2022-12-22T08:03:11.399Z,3.55
2022-12-22T08:05:39.156Z,3.59
2022-12-22T08:08:06.543Z,3.60
2022-12-22T08:10:34.164Z,3.64
2022-12-22T08:13:01.396Z,3.61
2022-12-22T08:15:28.993Z,3.70
2022-12-22T08:17:56.877Z,3.64
2022-12-22T08:20:24.577Z,3.63
2022-12-22T08:22:51.734Z,3.75
2022-12-22T08:25:19.338Z,3.70
2022-12-22T08:27:51.543Z,3.66
2022-12-22T08:30:19.205Z,3.66
2022-12-22T08:32:49.343Z,3.62
2022-12-22T08:35:17.161Z,3.71
2022-12-22T08:37:45.356Z,3.80
2022-12-22T08:40:16.544Z,3.77
2022-12-22T08:42:44.415Z,3.81
2022-12-22T08:45:12.493Z,3.86
2022-12-22T08:47:40.327Z,3.84
2022-12-22T08:50:08.559Z,3.90
2022-12-22T08:52:36.088Z,4.01
2022-12-22T08:55:04.176Z,4.04
2022-12-22T08:57:31.416Z,4.12
2022-12-22T08:59:59.647Z,4.18
2022-12-22T09:02:27.090Z,4.24
2022-12-22T09:04:54.950Z,4.27
2022-12-22T09:07:22.211Z,4.35
2022-12-22T09:09:49.822Z,4.42
2022-12-22T09:12:17.547Z,4.45
2022-12-22T09:14:45.123Z,4.46
2022-12-22T09:17:12.361Z,4.46
2022-12-22T09:19:40.053Z,4.42
2022-12-22T09:22:07.505Z,4.43
2022-12-22T09:24:35.313Z,4.44
2022-12-22T09:27:03.700Z,4.41
2022-12-22T09:29:31.406Z,4.44
2022-12-22T09:31:58.962Z,4.37
2022-12-22T09:34:27.689Z,4.35
2022-12-22T09:36:55.695Z,4.25
2022-12-22T09:39:28.852Z,4.29
2022-12-22T09:41:58.032Z,4.33
2022-12-22T09:44:33.072Z,4.40
2022-12-22T09:47:04.285Z,4.41
2022-12-22T09:49:32.194Z,4.35
2022-12-22T09:52:01.402Z,4.41
2022-12-22T09:54:30.321Z,4.32
2022-12-22T09:56:58.389Z,4.35
2022-12-22T09:59:28.610Z,4.30
2022-12-22T10:02:02.290Z,4.28
2022-12-22T10:05:07.703Z,4.33
2022-12-22T10:07:37.381Z,4.30
2022-12-22T10:10:28.382Z,4.32
2022-12-22T10:13:00.874Z,4.32
2022-12-22T10:15:36.650Z,4.23
2022-12-22T10:18:24.227Z,4.28
2022-12-22T10:21:11.933Z,4.34
2022-12-22T10:23:45.632Z,4.32
2022-12-22T10:26:28.061Z,4.32
2022-12-22T10:29:15.748Z,4.32
2022-12-22T10:32:03.199Z,4.36
2022-12-22T10:34:31.267Z,4.41
2022-12-22T10:37:04.172Z,4.40
2022-12-22T10:39:34.436Z,4.35
2022-12-22T10:42:10.146Z,4.33
2022-12-22T10:44:38.325Z,4.40
2022-12-22T10:47:18.239Z,4.43
2022-12-22T10:49:47.802Z,4.42
2022-12-22T10:52:16.614Z,4.50
2022-12-22T10:54:45.172Z,4.37
2022-12-22T10:57:16.729Z,4.41
2022-12-22T11:00:03.324Z,4.47
2022-12-22T11:02:40.380Z,4.44
2022-12-22T11:05:12.524Z,4.43
2022-12-22T11:07:43.047Z,4.47
2022-12-22T11:10:32.320Z,4.56
2022-12-22T11:13:22.948Z,4.50
2022-12-22T11:16:13.659Z,4.48
2022-12-22T11:19:12.581Z,4.42
2022-12-22T11:22:06.411Z,4.49
2022-12-22T11:24:42.603Z,4.38
2022-12-22T11:27:52.196Z,4.39
2022-12-22T11:30:24.292Z,4.28
2022-12-22T11:33:23.220Z,4.34
2022-12-22T11:35:56.662Z,4.30
2022-12-22T11:39:01.483Z,4.25
2022-12-22T11:41:34.279Z,4.32
2022-12-22T11:44:39.916Z,4.35
2022-12-22T11:47:19.373Z,4.30
2022-12-22T11:50:00.840Z,4.34
2022-12-22T11:53:19.207Z,4.35
2022-12-22T11:56:12.682Z,4.35
2022-12-22T11:58:58.806Z,4.26
2022-12-22T12:01:51.131Z,4.27
2022-12-22T12:04:37.305Z,4.17
2022-12-22T12:07:28.635Z,4.15
2022-12-22T12:10:20.433Z,4.20
2022-12-22T12:13:10.717Z,4.24
2022-12-22T12:15:56.816Z,4.30
2022-12-22T12:18:46.755Z,4.32
2022-12-22T12:22:02.649Z,4.36
2022-12-22T12:24:48.654Z,4.29
2022-12-22T12:27:40.687Z,4.29
2022-12-22T12:30:37.915Z,4.31
2022-12-22T12:33:24.823Z,4.37
2022-12-22T12:36:05.555Z,4.35
2022-12-22T12:39:11.546Z,4.40
2022-12-22T12:41:50.266Z,4.41
2022-12-22T12:44:20.232Z,4.38
2022-12-22T12:47:06.337Z,4.46
2022-12-22T12:49:34.222Z,4.42
2022-12-22T12:52:06.313Z,4.43
2022-12-22T12:54:37.167Z,4.54
2022-12-22T12:57:07.509Z,4.54
2022-12-22T12:59:40.996Z,4.59
2022-12-22T13:02:27.570Z,4.60
2022-12-22T13:05:08.266Z,4.68
2022-12-22T13:08:14.712Z,4.74
2022-12-22T13:10:45.924Z,4.74
2022-12-22T13:13:22.410Z,4.80
2022-12-22T13:16:12.716Z,4.76
2022-12-22T13:18:49.884Z,4.63
2022-12-22T13:24:26.275Z,4.33
2022-12-22T13:26:56.005Z,4.24
2022-12-22T13:29:27.475Z,4.12
2022-12-22T13:31:59.985Z,3.96
2022-12-22T13:35:20.265Z,3.83
2022-12-22T13:37:40.459Z,3.65
2022-12-22T13:40:31.457Z,3.63
2022-12-22T13:43:14.541Z,3.59
2022-12-22T13:45:54.810Z,3.58
2022-12-22T13:48:26.179Z,3.52
2022-12-22T13:50:55.645Z,3.48
2022-12-22T13:53:58.732Z,3.45
2022-12-22T13:56:18.378Z,3.38
2022-12-22T13:58:47.731Z,3.51
2022-12-22T14:01:18.262Z,3.42
2022-12-22T14:04:01.426Z,3.47
2022-12-22T14:06:30.451Z,3.54
2022-12-22T14:09:11.124Z,3.55
2022-12-22T14:11:38.584Z,3.54
2022-12-22T14:14:09.107Z,3.53
2022-12-22T14:16:43.331Z,3.55
2022-12-22T14:19:15.679Z,3.59
2022-12-22T14:21:45.144Z,3.59
2022-12-22T14:24:22.437Z,3.71
2022-12-22T14:26:50.391Z,3.65
2022-12-22T14:29:20.486Z,3.75
2022-12-22T14:32:02.989Z,3.70
2022-12-22T14:34:32.917Z,3.76
2022-12-22T14:37:01.566Z,3.74
2022-12-22T14:39:32.125Z,3.76
2022-12-22T14:42:12.214Z,3.86
2022-12-22T14:44:44.645Z,3.82
2022-12-22T14:47:12.376Z,3.77
2022-12-22T14:50:12.253Z,3.88
2022-12-22T14:53:01.537Z,3.90
2022-12-22T14:55:32.451Z,3.95
2022-12-22T14:58:04.601Z,3.86
2022-12-22T15:00:41.672Z,3.79
2022-12-22T15:03:32.228Z,3.80
2022-12-22T15:06:28.496Z,3.85
2022-12-22T15:09:06.731Z,3.84
2022-12-22T15:11:36.651Z,3.82
2022-12-22T15:14:04.897Z,3.84
2022-12-22T15:16:32.567Z,3.87
2022-12-22T15:18:59.771Z,3.86
2022-12-22T15:21:27.424Z,3.84
2022-12-22T15:23:54.669Z,3.87
2022-12-22T15:26:22.059Z,3.96
2022-12-22T15:28:50.147Z,3.92
2022-12-22T15:31:18.435Z,3.89
2022-12-22T15:33:46.072Z,3.88
2022-12-22T15:36:14.714Z,3.93
2022-12-22T15:38:42.536Z,3.93
2022-12-22T15:41:10.137Z,3.89
2022-12-22T15:43:57.257Z,3.88
2022-12-22T15:46:25.360Z,3.83
2022-12-22T15:48:52.964Z,3.83
2022-12-22T15:51:26.560Z,3.84
2022-12-22T15:53:55.138Z,3.79
2022-12-22T15:56:24.805Z,3.88
2022-12-22T15:58:52.658Z,3.85
2022-12-22T16:01:20.371Z,3.90
2022-12-22T16:03:47.984Z,3.95
2022-12-22T16:06:17.807Z,3.88
2022-12-22T16:08:50.351Z,3.98
2022-12-22T16:11:18.960Z,3.96
2022-12-22T16:13:47.090Z,3.98
2022-12-22T16:16:14.835Z,4.01
2022-12-22T16:18:42.077Z,3.98
2022-12-22T16:21:20.463Z,3.99
2022-12-22T16:23:49.544Z,4.05
2022-12-22T16:26:20.356Z,4.12
2022-12-22T16:28:47.790Z,4.08
2022-12-22T16:31:21.476Z,4.12
2022-12-22T16:33:48.905Z,4.09
2022-12-22T16:36:16.315Z,4.09
2022-12-22T16:38:46.040Z,4.14
2022-12-22T16:41:22.979Z,4.14
2022-12-22T16:43:50.317Z,4.14
2022-12-22T16:46:20.162Z,4.09
2022-12-22T16:48:54.636Z,4.12
2022-12-22T16:51:49.415Z,4.12
2022-12-22T16:54:16.813Z,4.13
2022-12-22T16:56:47.001Z,4.08
2022-12-22T16:59:14.563Z,4.14
2022-12-22T17:01:55.090Z,4.19
2022-12-22T17:04:26.168Z,4.24
2022-12-22T17:06:55.640Z,4.24
2022-12-22T17:09:44.558Z,4.14
2022-12-22T17:12:18.407Z,4.21
2022-12-22T17:14:46.814Z,4.28
2022-12-22T17:17:31.811Z,4.28
2022-12-22T17:20:01.528Z,4.32
2022-12-22T17:22:31.289Z,4.28
2022-12-22T17:25:01.160Z,4.29
2022-12-22T17:27:33.211Z,4.26
2022-12-22T17:30:03.697Z,4.30
2022-12-22T17:32:31.309Z,4.27
2022-12-22T17:34:58.567Z,4.22
2022-12-22T17:37:26.648Z,4.24
2022-12-22T17:39:59.553Z,4.31
2022-12-22T17:42:27.278Z,4.26
2022-12-22T17:44:54.467Z,4.24
2022-12-22T17:47:29.023Z,4.25
2022-12-22T17:49:58.874Z,4.30
2022-12-22T17:52:28.113Z,4.27
2022-12-22T17:54:55.716Z,4.24
2022-12-22T17:57:25.958Z,4.24
2022-12-22T17:59:53.244Z,4.31
2022-12-22T18:02:23.145Z,4.30
2022-12-22T18:04:50.727Z,4.27
2022-12-22T18:07:20.948Z,4.35
2022-12-22T18:09:49.021Z,4.33
2022-12-22T18:12:21.661Z,4.34
2022-12-22T18:14:49.582Z,4.36
2022-12-22T18:17:33.198Z,4.42
2022-12-22T18:20:02.682Z,4.42
2022-12-22T18:22:30.229Z,4.43
2022-12-22T18:25:01.616Z,4.44
2022-12-22T18:27:30.668Z,4.44
2022-12-22T18:29:57.947Z,4.49
2022-12-22T18:32:28.068Z,4.52
2022-12-22T18:34:55.839Z,4.59
2022-12-22T18:37:23.446Z,4.57
2022-12-22T18:39:50.790Z,4.55
2022-12-22T18:42:23.462Z,4.67
2022-12-22T18:44:51.320Z,4.69
2022-12-22T18:47:19.219Z,4.65
2022-12-22T18:49:46.681Z,4.66
2022-12-22T18:52:18.002Z,4.61
2022-12-22T18:54:45.615Z,4.46
2022-12-22T18:57:22.079Z,4.52
2022-12-22T18:59:49.722Z,4.53
2022-12-22T19:02:22.226Z,4.55
2022-12-22T19:04:50.915Z,4.55
2022-12-22T19:07:21.295Z,4.56
2022-12-22T19:09:49.401Z,4.55
2022-12-22T19:12:23.415Z,4.60
2022-12-22T19:14:52.943Z,4.60
2022-12-22T19:17:23.838Z,4.59
2022-12-22T19:19:51.025Z,4.58
2022-12-22T19:22:18.389Z,4.57
2022-12-22T19:24:45.796Z,4.58
2022-12-22T19:27:26.919Z,4.53
2022-12-22T19:30:02.704Z,4.57
2022-12-22T19:32:36.791Z,4.55
2022-12-22T19:35:04.614Z,4.61
2022-12-22T19:37:32.507Z,4.62
2022-12-22T19:40:00.222Z,4.61
2022-12-22T19:42:27.844Z,4.60
2022-12-22T19:44:55.214Z,4.61
2022-12-22T19:47:29.639Z,4.63
2022-12-22T19:49:57.080Z,4.61
2022-12-22T19:52:24.556Z,4.66
2022-12-22T19:54:51.813Z,4.67
2022-12-22T19:57:22.009Z,4.67
2022-12-22T19:59:50.423Z,4.69
2022-12-22T20:02:21.541Z,4.68
2022-12-22T20:04:49.771Z,4.74
2022-12-22T20:07:19.538Z,4.78
2022-12-22T20:09:47.409Z,4.77
2022-12-22T20:12:35.392Z,4.74
2022-12-22T20:15:14.359Z,4.74
2022-12-22T20:17:42.342Z,4.70
2022-12-22T20:20:17.319Z,4.70
2022-12-22T20:22:47.225Z,4.69
2022-12-22T20:25:18.112Z,4.66
2022-12-22T20:27:45.861Z,4.72
2022-12-22T20:30:24.276Z,4.76
2022-12-22T20:32:51.983Z,4.77
2022-12-22T20:35:19.193Z,4.78
2022-12-22T20:37:47.039Z,4.76
2022-12-22T20:40:34.792Z,4.76
2022-12-22T20:43:02.523Z,4.78
2022-12-22T20:45:31.039Z,4.76
2022-12-22T20:47:59.922Z,4.70
2022-12-22T20:50:29.990Z,4.80
2022-12-22T20:52:57.908Z,4.80
2022-12-22T20:55:27.567Z,4.75
2022-12-22T20:57:55.479Z,4.66
2022-12-22T21:00:27.714Z,4.78
2022-12-22T21:02:55.765Z,4.77
2022-12-22T21:05:23.361Z,4.80
2022-12-22T21:07:50.898Z,4.84
2022-12-22T21:10:23.141Z,4.77
2022-12-22T21:12:50.932Z,4.84
2022-12-22T21:15:20.575Z,4.82
2022-12-22T21:17:52.811Z,4.87
2022-12-22T21:20:26.227Z,4.86
2022-12-22T21:22:54.311Z,4.86
2022-12-22T21:25:23.171Z,4.86
2022-12-22T21:27:54.743Z,4.84
2022-12-22T21:30:30.926Z,4.82
2022-12-22T21:32:59.795Z,4.80
2022-12-22T21:35:36.166Z,4.89
2022-12-22T21:38:04.889Z,4.87
2022-12-22T21:40:33.114Z,4.88
2022-12-22T21:43:00.982Z,4.87
2022-12-22T21:45:30.639Z,4.90
2022-12-22T21:48:02.376Z,4.88
2022-12-22T21:50:32.269Z,4.87
2022-12-22T21:53:00.140Z,4.91
2022-12-22T21:55:30.077Z,4.88
2022-12-22T21:57:58.825Z,4.84
2022-12-22T22:00:28.523Z,4.81
2022-12-22T22:02:57.560Z,4.75
2022-12-22T22:05:39.745Z,4.75
2022-12-22T22:08:09.051Z,4.74
2022-12-22T22:10:38.843Z,4.69
2022-12-22T22:13:07.210Z,4.68
2022-12-22T22:15:35.613Z,4.69
2022-12-22T22:18:07.195Z,4.66
2022-12-22T22:20:35.172Z,4.72
2022-12-22T22:23:02.825Z,4.71
2022-12-22T22:25:30.418Z,4.70
2022-12-22T22:27:59.960Z,4.72
2022-12-22T22:30:27.707Z,4.71
2022-12-22T22:32:56.418Z,4.76
2022-12-22T22:35:25.144Z,4.75
2022-12-22T22:37:53.013Z,4.79
2022-12-22T22:40:22.863Z,4.78
2022-12-22T22:42:50.594Z,4.80
2022-12-22T22:45:23.947Z,4.81
2022-12-22T22:47:53.067Z,4.77
2022-12-22T22:50:21.641Z,4.77
2022-12-22T22:52:49.491Z,4.82
2022-12-22T22:55:16.751Z,4.76
2022-12-22T22:57:44.520Z,4.77
2022-12-22T23:00:14.442Z,4.79
2022-12-22T23:02:42.876Z,4.77
2022-12-22T23:05:15.408Z,4.77
2022-12-22T23:07:46.605Z,4.77
2022-12-22T23:10:14.415Z,4.79
2022-12-22T23:12:42.541Z,4.72
2022-12-22T23:15:10.066Z,4.73
2022-12-22T23:17:37.821Z,4.75
2022-12-22T23:20:05.727Z,4.79
2022-12-22T23:22:33.697Z,4.79
2022-12-22T23:25:01.115Z,4.79
2022-12-22T23:27:28.681Z,4.87
2022-12-22T23:29:56.764Z,4.84
2022-12-22T23:32:25.152Z,4.87
2022-12-22T23:34:52.647Z,4.85
2022-12-22T23:37:20.373Z,4.87
2022-12-22T23:39:47.674Z,4.89
2022-12-22T23:42:15.361Z,4.84
2022-12-22T23:44:42.470Z,4.92
2022-12-22T23:47:09.999Z,4.83
2022-12-22T23:49:37.308Z,4.85
2022-12-22T23:52:05.015Z,4.88
2022-12-22T23:54:32.302Z,4.88
2022-12-22T23:57:00.000Z,4.95
2022-12-22T23:59:27.466Z,4.81
